aviador You're here:

CYXR Decoded Metar

EARLTON in ON, CANADA
Report Time2017-12-11 15:00:00
UTC Time2017-12-11 15:11:24
Flight Rules vfr VFR
Wind140° at 05 kt
W.Decomp.*RWY 16: 5.0 kt HW 0.7 kt LCW
RWY 08: 1.5 kt HW 4.8 kt RCW
W.Rank140° ranks 3
Current wind is below 140° avg. (7.0)
Visibility9999 m
Phenomena:N/A
Clouds:N/A
Expected CloudBase > 800 ft AGL from Temp-Dew spread
CeilingNone
Temp-22°C (ISA -35)
Dew Point-24°C (84% RH)
AAT-27.5°C
QNH1015 hPa
Density Alt-3,806 ft
Elevation797 ft
Report Wrong Elevation
Raw Report
CYXR 111500Z AUTO 14005KT 9SM CLR M22/M24 A2998 RMK ICG SLP183=

Extra information for CYXR:More info

Metar Taf Metar & Taf Last 4 Metars F.Rules Stats Wind Profile Meteogram Temp Stats Airport Information Weather charts Add Link Nearby VenuesMetar ALERT Operation Metar Decoded Social comments